sensor_id;sensor_type;location;lat;lon;timestamp;P1;durP1;ratioP1;P2;durP2;ratioP2
12956;SDS011;6543;48.836;10.092;2022-08-27T00:01:12;17.97;;;13.27;;
12956;SDS011;6543;48.836;10.092;2022-08-27T00:03:41;17.37;;;13.90;;
12956;SDS011;6543;48.836;10.092;2022-08-27T00:06:10;18.37;;;14.37;;
12956;SDS011;6543;48.836;10.092;2022-08-27T00:08:38;17.40;;;13.37;;
12956;SDS011;6543;48.836;10.092;2022-08-27T00:11:05;19.13;;;13.60;;
12956;SDS011;6543;48.836;10.092;2022-08-27T00:13:32;17.37;;;12.47;;
12956;SDS011;6543;48.836;10.092;2022-08-27T00:16:02;17.17;;;12.63;;
12956;SDS011;6543;48.836;10.092;2022-08-27T00:18:30;14.47;;;11.33;;
12956;SDS011;6543;48.836;10.092;2022-08-27T00:20:58;13.10;;;11.70;;
12956;SDS011;6543;48.836;10.092;2022-08-27T00:23:25;14.70;;;11.20;;
12956;SDS011;6543;48.836;10.092;2022-08-27T00:25:52;13.27;;;10.83;;
12956;SDS011;6543;48.836;10.092;2022-08-27T00:28:19;12.90;;;10.00;;
12956;SDS011;6543;48.836;10.092;2022-08-27T00:30:46;12.30;;;10.73;;
12956;SDS011;6543;48.836;10.092;2022-08-27T00:33:14;12.90;;;10.63;;
12956;SDS011;6543;48.836;10.092;2022-08-27T00:35:41;12.57;;;9.73;;
12956;SDS011;6543;48.836;10.092;2022-08-27T00:38:08;11.80;;;9.07;;
12956;SDS011;6543;48.836;10.092;2022-08-27T00:40:35;13.40;;;9.50;;
12956;SDS011;6543;48.836;10.092;2022-08-27T00:43:02;12.20;;;9.50;;
12956;SDS011;6543;48.836;10.092;2022-08-27T00:45:30;12.67;;;9.97;;
12956;SDS011;6543;48.836;10.092;2022-08-27T00:48:03;10.77;;;8.80;;
12956;SDS011;6543;48.836;10.092;2022-08-27T00:50:36;10.93;;;8.97;;
12956;SDS011;6543;48.836;10.092;2022-08-27T00:53:06;10.97;;;9.57;;
12956;SDS011;6543;48.836;10.092;2022-08-27T00:55:38;11.47;;;9.07;;
12956;SDS011;6543;48.836;10.092;2022-08-27T00:58:08;12.87;;;9.13;;
12956;SDS011;6543;48.836;10.092;2022-08-27T01:00:39;11.63;;;9.70;;
12956;SDS011;6543;48.836;10.092;2022-08-27T01:03:07;12.53;;;8.83;;
12956;SDS011;6543;48.836;10.092;2022-08-27T01:05:35;10.50;;;9.07;;
12956;SDS011;6543;48.836;10.092;2022-08-27T01:08:04;16.60;;;9.37;;
12956;SDS011;6543;48.836;10.092;2022-08-27T01:10:33;11.07;;;9.00;;
12956;SDS011;6543;48.836;10.092;2022-08-27T01:13:02;11.13;;;9.73;;
12956;SDS011;6543;48.836;10.092;2022-08-27T01:15:31;11.00;;;9.43;;
12956;SDS011;6543;48.836;10.092;2022-08-27T01:17:58;11.87;;;9.73;;
12956;SDS011;6543;48.836;10.092;2022-08-27T01:20:28;15.93;;;11.13;;
12956;SDS011;6543;48.836;10.092;2022-08-27T01:23:03;13.13;;;10.70;;
12956;SDS011;6543;48.836;10.092;2022-08-27T01:25:39;13.63;;;10.67;;
12956;SDS011;6543;48.836;10.092;2022-08-27T01:28:07;13.83;;;11.33;;
12956;SDS011;6543;48.836;10.092;2022-08-27T01:30:36;13.07;;;10.37;;
12956;SDS011;6543;48.836;10.092;2022-08-27T01:33:07;11.77;;;9.50;;
12956;SDS011;6543;48.836;10.092;2022-08-27T01:35:34;12.33;;;10.57;;
12956;SDS011;6543;48.836;10.092;2022-08-27T01:38:01;13.43;;;10.93;;
12956;SDS011;6543;48.836;10.092;2022-08-27T01:40:29;13.27;;;11.13;;
12956;SDS011;6543;48.836;10.092;2022-08-27T01:42:57;11.33;;;9.73;;
12956;SDS011;6543;48.836;10.092;2022-08-27T01:45:26;15.87;;;9.70;;
12956;SDS011;6543;48.836;10.092;2022-08-27T01:47:54;11.17;;;9.33;;
12956;SDS011;6543;48.836;10.092;2022-08-27T01:50:22;14.23;;;9.47;;
12956;SDS011;6543;48.836;10.092;2022-08-27T01:52:51;12.77;;;9.60;;
12956;SDS011;6543;48.836;10.092;2022-08-27T01:55:20;13.13;;;10.33;;
12956;SDS011;6543;48.836;10.092;2022-08-27T01:57:49;11.60;;;10.40;;
12956;SDS011;6543;48.836;10.092;2022-08-27T02:00:18;12.73;;;10.50;;
12956;SDS011;6543;48.836;10.092;2022-08-27T02:02:47;15.10;;;10.17;;
12956;SDS011;6543;48.836;10.092;2022-08-27T02:05:15;13.97;;;10.90;;
12956;SDS011;6543;48.836;10.092;2022-08-27T02:07:43;12.73;;;10.60;;
12956;SDS011;6543;48.836;10.092;2022-08-27T02:10:12;12.87;;;10.17;;
12956;SDS011;6543;48.836;10.092;2022-08-27T02:12:41;11.77;;;9.37;;
12956;SDS011;6543;48.836;10.092;2022-08-27T02:15:09;12.53;;;9.63;;
12956;SDS011;6543;48.836;10.092;2022-08-27T02:17:38;13.67;;;9.90;;
12956;SDS011;6543;48.836;10.092;2022-08-27T02:20:05;9.23;;;8.30;;
12956;SDS011;6543;48.836;10.092;2022-08-27T02:22:35;9.40;;;8.13;;
12956;SDS011;6543;48.836;10.092;2022-08-27T02:25:02;9.20;;;8.13;;
12956;SDS011;6543;48.836;10.092;2022-08-27T02:27:31;9.80;;;8.30;;
12956;SDS011;6543;48.836;10.092;2022-08-27T02:29:57;12.70;;;8.53;;
12956;SDS011;6543;48.836;10.092;2022-08-27T02:32:24;11.50;;;8.67;;
12956;SDS011;6543;48.836;10.092;2022-08-27T02:34:53;9.80;;;8.80;;
12956;SDS011;6543;48.836;10.092;2022-08-27T02:37:20;10.63;;;9.33;;
12956;SDS011;6543;48.836;10.092;2022-08-27T02:39:47;10.13;;;8.80;;
12956;SDS011;6543;48.836;10.092;2022-08-27T02:42:14;14.10;;;11.43;;
12956;SDS011;6543;48.836;10.092;2022-08-27T02:44:41;13.83;;;9.90;;
12956;SDS011;6543;48.836;10.092;2022-08-27T02:47:08;11.83;;;9.10;;
12956;SDS011;6543;48.836;10.092;2022-08-27T02:49:36;11.07;;;8.70;;
12956;SDS011;6543;48.836;10.092;2022-08-27T02:52:04;12.77;;;10.07;;
12956;SDS011;6543;48.836;10.092;2022-08-27T02:54:31;12.57;;;10.13;;
12956;SDS011;6543;48.836;10.092;2022-08-27T02:56:58;15.53;;;10.30;;
12956;SDS011;6543;48.836;10.092;2022-08-27T02:59:25;12.17;;;9.93;;
12956;SDS011;6543;48.836;10.092;2022-08-27T03:01:52;10.80;;;9.60;;
12956;SDS011;6543;48.836;10.092;2022-08-27T03:04:19;14.30;;;9.00;;
12956;SDS011;6543;48.836;10.092;2022-08-27T03:06:47;10.33;;;9.03;;
12956;SDS011;6543;48.836;10.092;2022-08-27T03:09:16;14.73;;;9.33;;
12956;SDS011;6543;48.836;10.092;2022-08-27T03:11:42;13.17;;;10.63;;
12956;SDS011;6543;48.836;10.092;2022-08-27T03:14:09;9.93;;;8.93;;
12956;SDS011;6543;48.836;10.092;2022-08-27T03:16:37;11.17;;;9.67;;
12956;SDS011;6543;48.836;10.092;2022-08-27T03:19:05;11.50;;;9.67;;
12956;SDS011;6543;48.836;10.092;2022-08-27T03:21:32;12.67;;;10.23;;
12956;SDS011;6543;48.836;10.092;2022-08-27T03:24:00;10.50;;;9.40;;
12956;SDS011;6543;48.836;10.092;2022-08-27T03:26:29;13.10;;;11.23;;
12956;SDS011;6543;48.836;10.092;2022-08-27T03:28:57;15.90;;;11.27;;
12956;SDS011;6543;48.836;10.092;2022-08-27T03:31:25;25.70;;;16.87;;
12956;SDS011;6543;48.836;10.092;2022-08-27T03:33:53;16.03;;;11.70;;
12956;SDS011;6543;48.836;10.092;2022-08-27T03:36:22;16.30;;;12.00;;
12956;SDS011;6543;48.836;10.092;2022-08-27T03:38:49;13.53;;;10.97;;
12956;SDS011;6543;48.836;10.092;2022-08-27T03:41:17;15.43;;;12.50;;
12956;SDS011;6543;48.836;10.092;2022-08-27T03:43:45;43.70;;;27.03;;
12956;SDS011;6543;48.836;10.092;2022-08-27T03:46:12;35.77;;;23.03;;
12956;SDS011;6543;48.836;10.092;2022-08-27T03:48:39;28.27;;;20.10;;
12956;SDS011;6543;48.836;10.092;2022-08-27T03:51:08;30.70;;;21.10;;
12956;SDS011;6543;48.836;10.092;2022-08-27T03:53:36;32.33;;;20.83;;
12956;SDS011;6543;48.836;10.092;2022-08-27T03:56:05;40.93;;;24.23;;
12956;SDS011;6543;48.836;10.092;2022-08-27T03:58:33;44.70;;;27.47;;
12956;SDS011;6543;48.836;10.092;2022-08-27T04:01:02;56.97;;;35.17;;
12956;SDS011;6543;48.836;10.092;2022-08-27T04:03:31;63.60;;;34.43;;
12956;SDS011;6543;48.836;10.092;2022-08-27T04:05:58;68.10;;;38.40;;
12956;SDS011;6543;48.836;10.092;2022-08-27T04:08:25;65.50;;;36.27;;
12956;SDS011;6543;48.836;10.092;2022-08-27T04:10:52;64.33;;;36.57;;
12956;SDS011;6543;48.836;10.092;2022-08-27T04:13:20;70.77;;;38.40;;
12956;SDS011;6543;48.836;10.092;2022-08-27T04:15:48;73.10;;;40.80;;
12956;SDS011;6543;48.836;10.092;2022-08-27T04:18:19;71.60;;;39.87;;
12956;SDS011;6543;48.836;10.092;2022-08-27T04:20:46;75.70;;;39.77;;
12956;SDS011;6543;48.836;10.092;2022-08-27T04:23:16;70.47;;;38.57;;
12956;SDS011;6543;48.836;10.092;2022-08-27T04:25:44;70.17;;;37.50;;
12956;SDS011;6543;48.836;10.092;2022-08-27T04:28:12;70.23;;;40.63;;
12956;SDS011;6543;48.836;10.092;2022-08-27T04:30:40;71.23;;;39.30;;
12956;SDS011;6543;48.836;10.092;2022-08-27T04:33:08;72.10;;;40.67;;
12956;SDS011;6543;48.836;10.092;2022-08-27T04:35:36;73.63;;;40.07;;
12956;SDS011;6543;48.836;10.092;2022-08-27T04:38:03;76.70;;;40.80;;
12956;SDS011;6543;48.836;10.092;2022-08-27T04:40:31;66.10;;;38.70;;
12956;SDS011;6543;48.836;10.092;2022-08-27T04:43:11;72.10;;;38.97;;
12956;SDS011;6543;48.836;10.092;2022-08-27T04:45:43;70.27;;;39.53;;
12956;SDS011;6543;48.836;10.092;2022-08-27T04:48:11;73.13;;;40.67;;
12956;SDS011;6543;48.836;10.092;2022-08-27T04:50:41;70.43;;;38.57;;
12956;SDS011;6543;48.836;10.092;2022-08-27T04:53:09;61.53;;;37.40;;
12956;SDS011;6543;48.836;10.092;2022-08-27T04:55:39;73.57;;;41.37;;
12956;SDS011;6543;48.836;10.092;2022-08-27T04:58:07;73.07;;;40.57;;
12956;SDS011;6543;48.836;10.092;2022-08-27T05:00:39;73.20;;;40.60;;
12956;SDS011;6543;48.836;10.092;2022-08-27T05:03:07;66.30;;;39.53;;
12956;SDS011;6543;48.836;10.092;2022-08-27T05:05:34;73.70;;;41.73;;
12956;SDS011;6543;48.836;10.092;2022-08-27T05:08:03;80.10;;;42.80;;
12956;SDS011;6543;48.836;10.092;2022-08-27T05:10:37;66.50;;;39.57;;
12956;SDS011;6543;48.836;10.092;2022-08-27T05:13:05;78.97;;;42.00;;
12956;SDS011;6543;48.836;10.092;2022-08-27T05:15:32;78.00;;;44.60;;
12956;SDS011;6543;48.836;10.092;2022-08-27T05:17:59;81.00;;;42.67;;
12956;SDS011;6543;48.836;10.092;2022-08-27T05:20:26;78.60;;;43.13;;
12956;SDS011;6543;48.836;10.092;2022-08-27T05:22:54;70.73;;;39.67;;
12956;SDS011;6543;48.836;10.092;2022-08-27T05:25:23;76.10;;;42.73;;
12956;SDS011;6543;48.836;10.092;2022-08-27T05:27:51;66.10;;;37.97;;
12956;SDS011;6543;48.836;10.092;2022-08-27T05:30:18;64.27;;;36.47;;
12956;SDS011;6543;48.836;10.092;2022-08-27T05:32:45;58.67;;;34.80;;
12956;SDS011;6543;48.836;10.092;2022-08-27T05:35:12;57.77;;;32.77;;
12956;SDS011;6543;48.836;10.092;2022-08-27T05:37:39;59.67;;;33.53;;
12956;SDS011;6543;48.836;10.092;2022-08-27T05:40:06;60.23;;;34.63;;
12956;SDS011;6543;48.836;10.092;2022-08-27T05:42:35;56.30;;;33.87;;
12956;SDS011;6543;48.836;10.092;2022-08-27T05:45:02;73.17;;;35.27;;
12956;SDS011;6543;48.836;10.092;2022-08-27T05:47:30;56.53;;;33.67;;
12956;SDS011;6543;48.836;10.092;2022-08-27T05:49:56;57.87;;;34.30;;
12956;SDS011;6543;48.836;10.092;2022-08-27T05:52:23;58.40;;;34.77;;
12956;SDS011;6543;48.836;10.092;2022-08-27T05:54:50;62.77;;;35.53;;
12956;SDS011;6543;48.836;10.092;2022-08-27T05:57:17;60.87;;;35.40;;
12956;SDS011;6543;48.836;10.092;2022-08-27T05:59:45;64.53;;;36.37;;
12956;SDS011;6543;48.836;10.092;2022-08-27T06:02:30;67.37;;;36.53;;
12956;SDS011;6543;48.836;10.092;2022-08-27T06:05:01;70.03;;;38.73;;
12956;SDS011;6543;48.836;10.092;2022-08-27T06:07:28;70.83;;;37.90;;
12956;SDS011;6543;48.836;10.092;2022-08-27T06:09:55;76.20;;;38.13;;
12956;SDS011;6543;48.836;10.092;2022-08-27T06:12:23;70.20;;;37.90;;
12956;SDS011;6543;48.836;10.092;2022-08-27T06:14:51;79.03;;;38.57;;
12956;SDS011;6543;48.836;10.092;2022-08-27T06:17:18;76.20;;;38.77;;
12956;SDS011;6543;48.836;10.092;2022-08-27T06:19:45;92.83;;;42.60;;
12956;SDS011;6543;48.836;10.092;2022-08-27T06:22:12;86.10;;;42.60;;
12956;SDS011;6543;48.836;10.092;2022-08-27T06:24:39;92.87;;;44.57;;
12956;SDS011;6543;48.836;10.092;2022-08-27T06:27:08;92.90;;;41.10;;
12956;SDS011;6543;48.836;10.092;2022-08-27T06:29:36;72.77;;;36.67;;
12956;SDS011;6543;48.836;10.092;2022-08-27T06:32:05;82.60;;;39.60;;
12956;SDS011;6543;48.836;10.092;2022-08-27T06:34:33;81.97;;;39.83;;
12956;SDS011;6543;48.836;10.092;2022-08-27T06:37:00;80.90;;;38.73;;
12956;SDS011;6543;48.836;10.092;2022-08-27T06:39:29;83.80;;;38.30;;
12956;SDS011;6543;48.836;10.092;2022-08-27T06:41:56;77.87;;;36.90;;
12956;SDS011;6543;48.836;10.092;2022-08-27T06:44:23;70.23;;;36.70;;
12956;SDS011;6543;48.836;10.092;2022-08-27T06:46:50;71.53;;;36.77;;
12956;SDS011;6543;48.836;10.092;2022-08-27T06:49:19;65.70;;;34.07;;
12956;SDS011;6543;48.836;10.092;2022-08-27T06:51:47;65.83;;;33.97;;
12956;SDS011;6543;48.836;10.092;2022-08-27T06:54:15;56.77;;;32.57;;
12956;SDS011;6543;48.836;10.092;2022-08-27T06:56:44;58.23;;;33.60;;
12956;SDS011;6543;48.836;10.092;2022-08-27T06:59:13;59.80;;;33.17;;
12956;SDS011;6543;48.836;10.092;2022-08-27T07:01:43;50.47;;;30.40;;
12956;SDS011;6543;48.836;10.092;2022-08-27T07:04:32;52.00;;;31.57;;
12956;SDS011;6543;48.836;10.092;2022-08-27T07:06:59;49.93;;;31.30;;
12956;SDS011;6543;48.836;10.092;2022-08-27T07:09:27;50.73;;;31.40;;
12956;SDS011;6543;48.836;10.092;2022-08-27T07:11:56;48.53;;;30.17;;
12956;SDS011;6543;48.836;10.092;2022-08-27T07:14:23;45.73;;;31.00;;
12956;SDS011;6543;48.836;10.092;2022-08-27T07:16:50;51.33;;;33.07;;
12956;SDS011;6543;48.836;10.092;2022-08-27T07:19:17;49.33;;;32.53;;
12956;SDS011;6543;48.836;10.092;2022-08-27T07:21:45;45.17;;;30.60;;
12956;SDS011;6543;48.836;10.092;2022-08-27T07:24:12;49.90;;;32.57;;
12956;SDS011;6543;48.836;10.092;2022-08-27T07:26:40;50.47;;;32.90;;
12956;SDS011;6543;48.836;10.092;2022-08-27T07:29:09;48.27;;;32.37;;
12956;SDS011;6543;48.836;10.092;2022-08-27T07:31:37;48.90;;;33.97;;
12956;SDS011;6543;48.836;10.092;2022-08-27T07:34:04;46.00;;;31.90;;
12956;SDS011;6543;48.836;10.092;2022-08-27T07:36:34;49.10;;;33.27;;
12956;SDS011;6543;48.836;10.092;2022-08-27T07:39:04;51.80;;;32.40;;
12956;SDS011;6543;48.836;10.092;2022-08-27T07:41:32;47.50;;;33.43;;
12956;SDS011;6543;48.836;10.092;2022-08-27T07:44:21;46.30;;;32.50;;
12956;SDS011;6543;48.836;10.092;2022-08-27T07:46:49;41.43;;;31.37;;
12956;SDS011;6543;48.836;10.092;2022-08-27T07:49:17;41.87;;;29.97;;
12956;SDS011;6543;48.836;10.092;2022-08-27T07:51:44;39.40;;;30.93;;
12956;SDS011;6543;48.836;10.092;2022-08-27T07:54:13;45.20;;;32.10;;
12956;SDS011;6543;48.836;10.092;2022-08-27T07:56:41;40.50;;;29.85;;
12956;SDS011;6543;48.836;10.092;2022-08-27T07:59:08;41.57;;;30.00;;
12956;SDS011;6543;48.836;10.092;2022-08-27T08:01:35;36.63;;;29.45;;
12956;SDS011;6543;48.836;10.092;2022-08-27T08:04:02;39.90;;;28.77;;
12956;SDS011;6543;48.836;10.092;2022-08-27T08:06:30;39.15;;;30.77;;
12956;SDS011;6543;48.836;10.092;2022-08-27T08:08:58;36.37;;;28.97;;
12956;SDS011;6543;48.836;10.092;2022-08-27T08:11:26;37.27;;;28.80;;
12956;SDS011;6543;48.836;10.092;2022-08-27T08:13:53;47.00;;;30.33;;
12956;SDS011;6543;48.836;10.092;2022-08-27T08:16:21;34.37;;;27.63;;
12956;SDS011;6543;48.836;10.092;2022-08-27T08:18:49;34.60;;;28.37;;
12956;SDS011;6543;48.836;10.092;2022-08-27T08:21:16;33.93;;;28.67;;
12956;SDS011;6543;48.836;10.092;2022-08-27T08:23:43;36.13;;;29.70;;
12956;SDS011;6543;48.836;10.092;2022-08-27T08:26:13;39.70;;;30.53;;
12956;SDS011;6543;48.836;10.092;2022-08-27T08:28:42;38.65;;;29.45;;
12956;SDS011;6543;48.836;10.092;2022-08-27T08:31:10;36.67;;;29.05;;
12956;SDS011;6543;48.836;10.092;2022-08-27T08:33:37;37.05;;;27.67;;
12956;SDS011;6543;48.836;10.092;2022-08-27T08:36:05;31.65;;;27.17;;
12956;SDS011;6543;48.836;10.092;2022-08-27T08:38:34;32.17;;;26.85;;
12956;SDS011;6543;48.836;10.092;2022-08-27T08:41:01;34.47;;;26.98;;
12956;SDS011;6543;48.836;10.092;2022-08-27T08:43:32;34.03;;;28.23;;
12956;SDS011;6543;48.836;10.092;2022-08-27T08:46:07;33.25;;;26.17;;
12956;SDS011;6543;48.836;10.092;2022-08-27T08:48:39;30.42;;;27.13;;
12956;SDS011;6543;48.836;10.092;2022-08-27T08:51:12;30.80;;;25.88;;
12956;SDS011;6543;48.836;10.092;2022-08-27T08:53:46;33.75;;;26.08;;
12956;SDS011;6543;48.836;10.092;2022-08-27T08:56:19;29.10;;;25.75;;
12956;SDS011;6543;48.836;10.092;2022-08-27T08:58:50;33.67;;;27.25;;
12956;SDS011;6543;48.836;10.092;2022-08-27T09:01:22;35.35;;;27.35;;
12956;SDS011;6543;48.836;10.092;2022-08-27T09:03:53;35.47;;;27.10;;
12956;SDS011;6543;48.836;10.092;2022-08-27T09:06:25;27.05;;;23.88;;
12956;SDS011;6543;48.836;10.092;2022-08-27T09:09:01;29.85;;;26.05;;
12956;SDS011;6543;48.836;10.092;2022-08-27T09:11:36;32.00;;;26.25;;
12956;SDS011;6543;48.836;10.092;2022-08-27T09:14:13;30.98;;;26.35;;
12956;SDS011;6543;48.836;10.092;2022-08-27T09:16:50;29.80;;;26.60;;
12956;SDS011;6543;48.836;10.092;2022-08-27T09:19:17;34.10;;;27.70;;
12956;SDS011;6543;48.836;10.092;2022-08-27T09:21:46;30.13;;;24.40;;
12956;SDS011;6543;48.836;10.092;2022-08-27T09:24:21;26.45;;;22.40;;
12956;SDS011;6543;48.836;10.092;2022-08-27T09:26:58;23.13;;;19.63;;
12956;SDS011;6543;48.836;10.092;2022-08-27T09:29:25;19.40;;;10.60;;
12956;SDS011;6543;48.836;10.092;2022-08-27T09:31:56;20.73;;;7.37;;
12956;SDS011;6543;48.836;10.092;2022-08-27T09:34:26;9.80;;;6.50;;
12956;SDS011;6543;48.836;10.092;2022-08-27T09:36:59;14.60;;;7.33;;
12956;SDS011;6543;48.836;10.092;2022-08-27T09:39:34;19.70;;;7.27;;
12956;SDS011;6543;48.836;10.092;2022-08-27T09:42:06;7.77;;;5.13;;
12956;SDS011;6543;48.836;10.092;2022-08-27T09:44:43;4.67;;;4.07;;
12956;SDS011;6543;48.836;10.092;2022-08-27T09:47:14;5.87;;;3.10;;
12956;SDS011;6543;48.836;10.092;2022-08-27T09:49:41;2.90;;;2.53;;
12956;SDS011;6543;48.836;10.092;2022-08-27T09:52:12;3.13;;;2.93;;
12956;SDS011;6543;48.836;10.092;2022-08-27T09:54:57;3.60;;;3.20;;
12956;SDS011;6543;48.836;10.092;2022-08-27T09:57:32;4.03;;;3.73;;
12956;SDS011;6543;48.836;10.092;2022-08-27T10:00:05;6.87;;;3.27;;
12956;SDS011;6543;48.836;10.092;2022-08-27T10:02:49;3.70;;;3.40;;
12956;SDS011;6543;48.836;10.092;2022-08-27T10:05:23;3.73;;;3.33;;
12956;SDS011;6543;48.836;10.092;2022-08-27T10:07:55;5.27;;;4.77;;
12956;SDS011;6543;48.836;10.092;2022-08-27T10:10:29;5.10;;;4.60;;
12956;SDS011;6543;48.836;10.092;2022-08-27T10:13:04;5.27;;;4.30;;
12956;SDS011;6543;48.836;10.092;2022-08-27T10:15:36;7.53;;;3.80;;
12956;SDS011;6543;48.836;10.092;2022-08-27T10:18:09;5.13;;;3.83;;
12956;SDS011;6543;48.836;10.092;2022-08-27T10:20:46;4.97;;;3.73;;
12956;SDS011;6543;48.836;10.092;2022-08-27T10:23:25;4.13;;;3.10;;
12956;SDS011;6543;48.836;10.092;2022-08-27T10:26:03;3.17;;;2.80;;
12956;SDS011;6543;48.836;10.092;2022-08-27T10:28:38;3.20;;;2.90;;
12956;SDS011;6543;48.836;10.092;2022-08-27T10:31:22;3.60;;;3.30;;
12956;SDS011;6543;48.836;10.092;2022-08-27T10:34:00;3.67;;;3.27;;
12956;SDS011;6543;48.836;10.092;2022-08-27T10:36:39;4.67;;;3.13;;
12956;SDS011;6543;48.836;10.092;2022-08-27T10:39:29;3.03;;;2.77;;
12956;SDS011;6543;48.836;10.092;2022-08-27T10:42:12;3.30;;;3.00;;
12956;SDS011;6543;48.836;10.092;2022-08-27T10:44:51;3.40;;;3.10;;
12956;SDS011;6543;48.836;10.092;2022-08-27T10:47:32;2.93;;;2.60;;
12956;SDS011;6543;48.836;10.092;2022-08-27T10:50:14;4.03;;;2.60;;
12956;SDS011;6543;48.836;10.092;2022-08-27T10:52:51;2.43;;;2.23;;
12956;SDS011;6543;48.836;10.092;2022-08-27T10:55:26;3.67;;;3.03;;
12956;SDS011;6543;48.836;10.092;2022-08-27T10:58:03;3.57;;;3.27;;
12956;SDS011;6543;48.836;10.092;2022-08-27T11:00:53;2.93;;;2.57;;
12956;SDS011;6543;48.836;10.092;2022-08-27T11:03:27;4.60;;;2.60;;
12956;SDS011;6543;48.836;10.092;2022-08-27T11:06:02;2.10;;;2.00;;
12956;SDS011;6543;48.836;10.092;2022-08-27T11:08:37;2.37;;;2.20;;
12956;SDS011;6543;48.836;10.092;2022-08-27T11:11:07;2.90;;;2.30;;
12956;SDS011;6543;48.836;10.092;2022-08-27T11:13:39;2.83;;;2.43;;
12956;SDS011;6543;48.836;10.092;2022-08-27T11:16:12;2.60;;;2.40;;
12956;SDS011;6543;48.836;10.092;2022-08-27T11:18:43;2.43;;;1.87;;
12956;SDS011;6543;48.836;10.092;2022-08-27T11:21:18;2.33;;;2.20;;
12956;SDS011;6543;48.836;10.092;2022-08-27T11:23:52;2.40;;;2.30;;
12956;SDS011;6543;48.836;10.092;2022-08-27T11:26:23;2.50;;;2.30;;
12956;SDS011;6543;48.836;10.092;2022-08-27T11:28:51;3.30;;;2.60;;
12956;SDS011;6543;48.836;10.092;2022-08-27T11:31:21;3.03;;;2.83;;
12956;SDS011;6543;48.836;10.092;2022-08-27T11:34:00;2.27;;;2.17;;
12956;SDS011;6543;48.836;10.092;2022-08-27T11:36:47;2.13;;;1.98;;
12956;SDS011;6543;48.836;10.092;2022-08-27T11:39:31;2.93;;;2.73;;
12956;SDS011;6543;48.836;10.092;2022-08-27T11:42:15;2.53;;;2.37;;
12956;SDS011;6543;48.836;10.092;2022-08-27T11:44:56;4.53;;;2.50;;
12956;SDS011;6543;48.836;10.092;2022-08-27T11:47:29;3.03;;;2.80;;
12956;SDS011;6543;48.836;10.092;2022-08-27T11:49:57;2.55;;;2.42;;
12956;SDS011;6543;48.836;10.092;2022-08-27T11:52:28;3.73;;;2.57;;
12956;SDS011;6543;48.836;10.092;2022-08-27T11:55:08;2.60;;;2.40;;
12956;SDS011;6543;48.836;10.092;2022-08-27T11:57:39;2.17;;;2.08;;
12956;SDS011;6543;48.836;10.092;2022-08-27T12:00:10;2.47;;;2.27;;
12956;SDS011;6543;48.836;10.092;2022-08-27T12:02:42;2.50;;;2.40;;
12956;SDS011;6543;48.836;10.092;2022-08-27T12:05:20;4.05;;;2.60;;
12956;SDS011;6543;48.836;10.092;2022-08-27T12:07:50;2.90;;;2.53;;
12956;SDS011;6543;48.836;10.092;2022-08-27T12:10:27;5.68;;;2.50;;
12956;SDS011;6543;48.836;10.092;2022-08-27T12:13:04;2.95;;;2.65;;
12956;SDS011;6543;48.836;10.092;2022-08-27T12:15:47;5.47;;;2.75;;
12956;SDS011;6543;48.836;10.092;2022-08-27T12:18:28;2.60;;;2.50;;
12956;SDS011;6543;48.836;10.092;2022-08-27T12:21:17;2.47;;;2.35;;
12956;SDS011;6543;48.836;10.092;2022-08-27T12:23:57;2.20;;;2.10;;
12956;SDS011;6543;48.836;10.092;2022-08-27T12:26:36;3.63;;;3.33;;
12956;SDS011;6543;48.836;10.092;2022-08-27T12:29:19;3.80;;;3.50;;
12956;SDS011;6543;48.836;10.092;2022-08-27T12:31:53;3.80;;;3.28;;
12956;SDS011;6543;48.836;10.092;2022-08-27T12:34:27;3.22;;;2.67;;
12956;SDS011;6543;48.836;10.092;2022-08-27T12:36:56;3.17;;;2.97;;
12956;SDS011;6543;48.836;10.092;2022-08-27T12:39:25;2.88;;;2.67;;
12956;SDS011;6543;48.836;10.092;2022-08-27T12:41:55;3.03;;;2.83;;
12956;SDS011;6543;48.836;10.092;2022-08-27T12:44:24;2.83;;;2.63;;
12956;SDS011;6543;48.836;10.092;2022-08-27T12:46:53;5.03;;;2.90;;
12956;SDS011;6543;48.836;10.092;2022-08-27T12:49:26;2.97;;;2.78;;
12956;SDS011;6543;48.836;10.092;2022-08-27T12:52:00;2.92;;;2.63;;
12956;SDS011;6543;48.836;10.092;2022-08-27T12:54:36;3.28;;;3.00;;
12956;SDS011;6543;48.836;10.092;2022-08-27T12:57:11;3.22;;;2.92;;
12956;SDS011;6543;48.836;10.092;2022-08-27T12:59:54;2.85;;;2.65;;
12956;SDS011;6543;48.836;10.092;2022-08-27T13:02:37;3.10;;;2.90;;
12956;SDS011;6543;48.836;10.092;2022-08-27T13:05:17;3.00;;;2.80;;
12956;SDS011;6543;48.836;10.092;2022-08-27T13:07:46;3.22;;;3.03;;
12956;SDS011;6543;48.836;10.092;2022-08-27T13:10:16;4.15;;;3.17;;
12956;SDS011;6543;48.836;10.092;2022-08-27T13:12:45;3.60;;;3.28;;
12956;SDS011;6543;48.836;10.092;2022-08-27T13:15:14;3.72;;;3.10;;
12956;SDS011;6543;48.836;10.092;2022-08-27T13:17:42;3.40;;;3.10;;
12956;SDS011;6543;48.836;10.092;2022-08-27T13:20:12;3.58;;;3.30;;
12956;SDS011;6543;48.836;10.092;2022-08-27T13:22:41;3.35;;;3.05;;
12956;SDS011;6543;48.836;10.092;2022-08-27T13:25:21;3.80;;;3.50;;
12956;SDS011;6543;48.836;10.092;2022-08-27T13:27:53;3.75;;;3.42;;
12956;SDS011;6543;48.836;10.092;2022-08-27T13:30:23;3.60;;;3.35;;
12956;SDS011;6543;48.836;10.092;2022-08-27T13:32:53;3.78;;;3.33;;
12956;SDS011;6543;48.836;10.092;2022-08-27T13:35:21;6.68;;;3.50;;
12956;SDS011;6543;48.836;10.092;2022-08-27T13:37:50;3.60;;;3.30;;
12956;SDS011;6543;48.836;10.092;2022-08-27T13:40:24;3.92;;;3.58;;
12956;SDS011;6543;48.836;10.092;2022-08-27T13:42:55;4.50;;;3.67;;
12956;SDS011;6543;48.836;10.092;2022-08-27T13:45:27;3.47;;;3.17;;
12956;SDS011;6543;48.836;10.092;2022-08-27T13:47:54;3.85;;;3.53;;
12956;SDS011;6543;48.836;10.092;2022-08-27T13:50:22;3.88;;;3.58;;
12956;SDS011;6543;48.836;10.092;2022-08-27T13:52:50;4.97;;;4.20;;
12956;SDS011;6543;48.836;10.092;2022-08-27T13:55:38;4.80;;;4.40;;
12956;SDS011;6543;48.836;10.092;2022-08-27T13:58:11;4.10;;;3.80;;
12956;SDS011;6543;48.836;10.092;2022-08-27T14:00:39;3.95;;;3.65;;
12956;SDS011;6543;48.836;10.092;2022-08-27T14:03:21;5.25;;;4.00;;
12956;SDS011;6543;48.836;10.092;2022-08-27T14:05:50;3.42;;;3.22;;
12956;SDS011;6543;48.836;10.092;2022-08-27T14:08:17;3.88;;;3.45;;
12956;SDS011;6543;48.836;10.092;2022-08-27T14:10:49;4.93;;;4.05;;
12956;SDS011;6543;48.836;10.092;2022-08-27T14:13:25;8.70;;;6.40;;
12956;SDS011;6543;48.836;10.092;2022-08-27T14:15:53;7.53;;;6.75;;
12956;SDS011;6543;48.836;10.092;2022-08-27T14:18:22;5.18;;;4.68;;
12956;SDS011;6543;48.836;10.092;2022-08-27T14:20:52;5.40;;;5.00;;
12956;SDS011;6543;48.836;10.092;2022-08-27T14:23:20;5.20;;;4.80;;
12956;SDS011;6543;48.836;10.092;2022-08-27T14:25:49;8.40;;;7.63;;
12956;SDS011;6543;48.836;10.092;2022-08-27T14:28:17;7.47;;;6.73;;
12956;SDS011;6543;48.836;10.092;2022-08-27T14:30:45;10.77;;;9.68;;
12956;SDS011;6543;48.836;10.092;2022-08-27T14:33:12;7.13;;;6.53;;
12956;SDS011;6543;48.836;10.092;2022-08-27T14:35:39;6.53;;;5.90;;
12956;SDS011;6543;48.836;10.092;2022-08-27T14:38:07;6.63;;;5.95;;
12956;SDS011;6543;48.836;10.092;2022-08-27T14:40:40;6.38;;;5.78;;
12956;SDS011;6543;48.836;10.092;2022-08-27T14:43:09;7.60;;;6.90;;
12956;SDS011;6543;48.836;10.092;2022-08-27T14:45:36;8.05;;;7.25;;
12956;SDS011;6543;48.836;10.092;2022-08-27T14:48:03;8.27;;;7.13;;
12956;SDS011;6543;48.836;10.092;2022-08-27T14:50:32;6.40;;;5.80;;
12956;SDS011;6543;48.836;10.092;2022-08-27T14:52:59;6.17;;;5.67;;